sensor_id;sensor_type;location;lat;lon;timestamp;temperature;humidity
19031;DHT22;9648;51.130;13.978;2023-08-31T00:01:15;11.80;99.90
19031;DHT22;9648;51.130;13.978;2023-08-31T00:03:42;11.90;99.90
19031;DHT22;9648;51.130;13.978;2023-08-31T00:06:13;11.90;99.90
19031;DHT22;9648;51.130;13.978;2023-08-31T00:08:40;11.90;99.90
19031;DHT22;9648;51.130;13.978;2023-08-31T00:11:08;11.90;99.90
19031;DHT22;9648;51.130;13.978;2023-08-31T00:13:35;12.00;99.90
19031;DHT22;9648;51.130;13.978;2023-08-31T00:16:02;12.00;99.90
19031;DHT22;9648;51.130;13.978;2023-08-31T00:18:30;12.00;99.90
19031;DHT22;9648;51.130;13.978;2023-08-31T00:20:57;12.10;99.90
19031;DHT22;9648;51.130;13.978;2023-08-31T00:23:24;12.10;99.90
19031;DHT22;9648;51.130;13.978;2023-08-31T00:25:52;12.20;99.90
19031;DHT22;9648;51.130;13.978;2023-08-31T00:28:20;12.20;99.90
19031;DHT22;9648;51.130;13.978;2023-08-31T00:30:47;12.20;99.90
19031;DHT22;9648;51.130;13.978;2023-08-31T00:33:15;12.20;99.90
19031;DHT22;9648;51.130;13.978;2023-08-31T00:35:42;12.20;99.90
19031;DHT22;9648;51.130;13.978;2023-08-31T00:38:09;12.20;99.90
19031;DHT22;9648;51.130;13.978;2023-08-31T00:40:38;12.10;99.90
19031;DHT22;9648;51.130;13.978;2023-08-31T00:43:09;12.20;99.90
19031;DHT22;9648;51.130;13.978;2023-08-31T00:45:38;12.20;99.90
19031;DHT22;9648;51.130;13.978;2023-08-31T00:48:06;12.20;99.90
19031;DHT22;9648;51.130;13.978;2023-08-31T00:50:34;12.20;99.90
19031;DHT22;9648;51.130;13.978;2023-08-31T00:53:00;12.30;99.90
19031;DHT22;9648;51.130;13.978;2023-08-31T00:55:29;12.30;99.90
19031;DHT22;9648;51.130;13.978;2023-08-31T00:57:58;12.30;99.90
19031;DHT22;9648;51.130;13.978;2023-08-31T01:00:33;12.40;99.90
19031;DHT22;9648;51.130;13.978;2023-08-31T01:03:13;12.50;99.90
19031;DHT22;9648;51.130;13.978;2023-08-31T01:05:50;12.50;99.90
19031;DHT22;9648;51.130;13.978;2023-08-31T01:08:24;12.50;99.90
19031;DHT22;9648;51.130;13.978;2023-08-31T01:11:06;12.50;99.90
19031;DHT22;9648;51.130;13.978;2023-08-31T01:13:38;12.50;99.90
19031;DHT22;9648;51.130;13.978;2023-08-31T01:16:08;12.50;99.90
19031;DHT22;9648;51.130;13.978;2023-08-31T01:18:39;12.50;99.90
19031;DHT22;9648;51.130;13.978;2023-08-31T01:21:17;12.50;99.90
19031;DHT22;9648;51.130;13.978;2023-08-31T01:23:55;12.50;99.90
19031;DHT22;9648;51.130;13.978;2023-08-31T01:26:24;12.50;99.90
19031;DHT22;9648;51.130;13.978;2023-08-31T01:28:52;12.40;99.90
19031;DHT22;9648;51.130;13.978;2023-08-31T01:31:19;12.40;99.90
19031;DHT22;9648;51.130;13.978;2023-08-31T01:33:46;12.30;99.90
19031;DHT22;9648;51.130;13.978;2023-08-31T01:36:20;12.30;99.90
19031;DHT22;9648;51.130;13.978;2023-08-31T01:38:57;12.30;99.90
19031;DHT22;9648;51.130;13.978;2023-08-31T01:41:26;12.30;99.90
19031;DHT22;9648;51.130;13.978;2023-08-31T01:43:55;12.30;99.90
19031;DHT22;9648;51.130;13.978;2023-08-31T01:46:22;12.30;99.90
19031;DHT22;9648;51.130;13.978;2023-08-31T01:48:49;12.30;99.90
19031;DHT22;9648;51.130;13.978;2023-08-31T01:51:17;12.30;99.90
19031;DHT22;9648;51.130;13.978;2023-08-31T01:53:43;12.20;99.90
19031;DHT22;9648;51.130;13.978;2023-08-31T01:56:12;12.20;99.90
19031;DHT22;9648;51.130;13.978;2023-08-31T01:58:39;12.20;99.90
19031;DHT22;9648;51.130;13.978;2023-08-31T02:01:06;12.30;99.90
19031;DHT22;9648;51.130;13.978;2023-08-31T02:03:32;12.30;99.90
19031;DHT22;9648;51.130;13.978;2023-08-31T02:05:59;12.30;99.90
19031;DHT22;9648;51.130;13.978;2023-08-31T02:08:26;12.30;99.90
19031;DHT22;9648;51.130;13.978;2023-08-31T02:10:53;12.30;99.90
19031;DHT22;9648;51.130;13.978;2023-08-31T02:13:21;12.30;99.90
19031;DHT22;9648;51.130;13.978;2023-08-31T02:15:51;12.30;99.90
19031;DHT22;9648;51.130;13.978;2023-08-31T02:18:18;12.30;99.90
19031;DHT22;9648;51.130;13.978;2023-08-31T02:20:45;12.40;99.90
19031;DHT22;9648;51.130;13.978;2023-08-31T02:23:12;12.40;99.90
19031;DHT22;9648;51.130;13.978;2023-08-31T02:25:38;12.40;99.90
19031;DHT22;9648;51.130;13.978;2023-08-31T02:28:05;12.40;99.90
19031;DHT22;9648;51.130;13.978;2023-08-31T02:30:33;12.40;99.90
19031;DHT22;9648;51.130;13.978;2023-08-31T02:33:04;12.40;99.90
19031;DHT22;9648;51.130;13.978;2023-08-31T02:35:30;12.40;99.90
19031;DHT22;9648;51.130;13.978;2023-08-31T02:37:57;12.50;99.90
19031;DHT22;9648;51.130;13.978;2023-08-31T02:40:25;12.50;99.90
19031;DHT22;9648;51.130;13.978;2023-08-31T02:42:52;12.50;99.90
19031;DHT22;9648;51.130;13.978;2023-08-31T02:45:19;12.50;99.90
19031;DHT22;9648;51.130;13.978;2023-08-31T02:47:47;12.50;99.90
19031;DHT22;9648;51.130;13.978;2023-08-31T02:50:15;12.50;99.90
19031;DHT22;9648;51.130;13.978;2023-08-31T02:52:42;12.50;99.90
19031;DHT22;9648;51.130;13.978;2023-08-31T02:55:08;12.50;99.90
19031;DHT22;9648;51.130;13.978;2023-08-31T02:57:35;12.50;99.90
19031;DHT22;9648;51.130;13.978;2023-08-31T03:00:03;12.50;99.90
19031;DHT22;9648;51.130;13.978;2023-08-31T03:02:34;12.60;99.90
19031;DHT22;9648;51.130;13.978;2023-08-31T03:05:06;12.60;99.90
19031;DHT22;9648;51.130;13.978;2023-08-31T03:07:34;12.60;99.90
19031;DHT22;9648;51.130;13.978;2023-08-31T03:10:21;12.70;99.90
19031;DHT22;9648;51.130;13.978;2023-08-31T03:12:48;12.70;99.90
19031;DHT22;9648;51.130;13.978;2023-08-31T03:15:15;12.80;99.90
19031;DHT22;9648;51.130;13.978;2023-08-31T03:17:41;12.80;99.90
19031;DHT22;9648;51.130;13.978;2023-08-31T03:20:10;12.90;99.90
19031;DHT22;9648;51.130;13.978;2023-08-31T03:22:37;12.80;99.90
19031;DHT22;9648;51.130;13.978;2023-08-31T03:25:05;12.80;99.90
19031;DHT22;9648;51.130;13.978;2023-08-31T03:27:35;12.80;99.90
19031;DHT22;9648;51.130;13.978;2023-08-31T03:30:06;12.70;99.90
19031;DHT22;9648;51.130;13.978;2023-08-31T03:32:33;12.70;99.90
19031;DHT22;9648;51.130;13.978;2023-08-31T03:35:01;12.60;99.90
19031;DHT22;9648;51.130;13.978;2023-08-31T03:37:30;12.60;99.90
19031;DHT22;9648;51.130;13.978;2023-08-31T03:39:57;12.60;99.90
19031;DHT22;9648;51.130;13.978;2023-08-31T03:42:24;12.60;99.90
19031;DHT22;9648;51.130;13.978;2023-08-31T03:44:50;12.60;99.90
19031;DHT22;9648;51.130;13.978;2023-08-31T03:47:17;12.60;99.90
19031;DHT22;9648;51.130;13.978;2023-08-31T03:49:44;12.60;99.90
19031;DHT22;9648;51.130;13.978;2023-08-31T03:52:11;12.50;99.90
19031;DHT22;9648;51.130;13.978;2023-08-31T03:54:39;12.60;99.90
19031;DHT22;9648;51.130;13.978;2023-08-31T03:57:06;12.50;99.90
19031;DHT22;9648;51.130;13.978;2023-08-31T03:59:33;12.50;99.90
19031;DHT22;9648;51.130;13.978;2023-08-31T04:02:00;12.50;99.90
19031;DHT22;9648;51.130;13.978;2023-08-31T04:04:30;12.50;99.90
19031;DHT22;9648;51.130;13.978;2023-08-31T04:06:57;12.50;99.90
19031;DHT22;9648;51.130;13.978;2023-08-31T04:09:24;12.50;99.90
19031;DHT22;9648;51.130;13.978;2023-08-31T04:11:52;12.40;99.90
19031;DHT22;9648;51.130;13.978;2023-08-31T04:14:19;12.40;99.90
19031;DHT22;9648;51.130;13.978;2023-08-31T04:16:46;12.40;99.90
19031;DHT22;9648;51.130;13.978;2023-08-31T04:19:18;12.30;99.90
19031;DHT22;9648;51.130;13.978;2023-08-31T04:21:45;12.30;99.90
19031;DHT22;9648;51.130;13.978;2023-08-31T04:24:15;12.30;99.90
19031;DHT22;9648;51.130;13.978;2023-08-31T04:26:42;12.20;99.90
19031;DHT22;9648;51.130;13.978;2023-08-31T04:29:14;12.20;99.90
19031;DHT22;9648;51.130;13.978;2023-08-31T04:31:41;12.20;99.90
19031;DHT22;9648;51.130;13.978;2023-08-31T04:34:08;12.20;99.90
19031;DHT22;9648;51.130;13.978;2023-08-31T04:36:34;12.20;99.90
19031;DHT22;9648;51.130;13.978;2023-08-31T04:39:01;12.20;99.90
19031;DHT22;9648;51.130;13.978;2023-08-31T04:41:30;12.20;99.90
19031;DHT22;9648;51.130;13.978;2023-08-31T04:43:57;12.20;99.90
19031;DHT22;9648;51.130;13.978;2023-08-31T04:46:25;12.20;99.90
19031;DHT22;9648;51.130;13.978;2023-08-31T04:48:52;12.30;99.90
19031;DHT22;9648;51.130;13.978;2023-08-31T04:51:30;12.30;99.90
19031;DHT22;9648;51.130;13.978;2023-08-31T04:53:58;12.40;99.90
19031;DHT22;9648;51.130;13.978;2023-08-31T04:56:28;12.40;99.90
19031;DHT22;9648;51.130;13.978;2023-08-31T04:58:55;12.40;99.90
19031;DHT22;9648;51.130;13.978;2023-08-31T05:01:22;12.40;99.90
19031;DHT22;9648;51.130;13.978;2023-08-31T05:03:50;12.40;99.90
19031;DHT22;9648;51.130;13.978;2023-08-31T05:06:17;12.40;99.90
19031;DHT22;9648;51.130;13.978;2023-08-31T05:08:44;12.50;99.90
19031;DHT22;9648;51.130;13.978;2023-08-31T05:11:14;12.50;99.90
19031;DHT22;9648;51.130;13.978;2023-08-31T05:13:41;12.50;99.90
19031;DHT22;9648;51.130;13.978;2023-08-31T05:16:08;12.60;99.90
19031;DHT22;9648;51.130;13.978;2023-08-31T05:18:35;12.60;99.90
19031;DHT22;9648;51.130;13.978;2023-08-31T05:21:04;12.60;99.90
19031;DHT22;9648;51.130;13.978;2023-08-31T05:23:31;12.70;99.90
19031;DHT22;9648;51.130;13.978;2023-08-31T05:25:57;12.70;99.90
19031;DHT22;9648;51.130;13.978;2023-08-31T05:28:26;12.70;99.90
19031;DHT22;9648;51.130;13.978;2023-08-31T05:30:55;12.70;99.90
19031;DHT22;9648;51.130;13.978;2023-08-31T05:33:23;12.80;99.90
19031;DHT22;9648;51.130;13.978;2023-08-31T05:35:51;12.80;99.90
19031;DHT22;9648;51.130;13.978;2023-08-31T05:38:19;12.90;99.90
19031;DHT22;9648;51.130;13.978;2023-08-31T05:40:46;12.90;99.90
19031;DHT22;9648;51.130;13.978;2023-08-31T05:43:13;13.00;99.90
19031;DHT22;9648;51.130;13.978;2023-08-31T05:45:43;13.10;99.90
19031;DHT22;9648;51.130;13.978;2023-08-31T05:48:12;13.10;99.90
19031;DHT22;9648;51.130;13.978;2023-08-31T05:50:39;13.20;99.90
19031;DHT22;9648;51.130;13.978;2023-08-31T05:53:08;13.20;99.90
19031;DHT22;9648;51.130;13.978;2023-08-31T05:55:37;13.20;99.90
19031;DHT22;9648;51.130;13.978;2023-08-31T05:58:04;13.20;99.90
19031;DHT22;9648;51.130;13.978;2023-08-31T06:00:31;13.20;99.90
19031;DHT22;9648;51.130;13.978;2023-08-31T06:02:57;13.20;99.90
19031;DHT22;9648;51.130;13.978;2023-08-31T06:05:24;13.20;99.90
19031;DHT22;9648;51.130;13.978;2023-08-31T06:07:52;13.20;99.90
19031;DHT22;9648;51.130;13.978;2023-08-31T06:10:19;13.20;99.90
19031;DHT22;9648;51.130;13.978;2023-08-31T06:12:48;13.30;99.90
19031;DHT22;9648;51.130;13.978;2023-08-31T06:15:15;13.30;99.90
19031;DHT22;9648;51.130;13.978;2023-08-31T06:17:45;13.30;99.90
19031;DHT22;9648;51.130;13.978;2023-08-31T06:20:12;13.40;99.90
19031;DHT22;9648;51.130;13.978;2023-08-31T06:22:38;13.50;99.90
19031;DHT22;9648;51.130;13.978;2023-08-31T06:25:06;13.50;99.90
19031;DHT22;9648;51.130;13.978;2023-08-31T06:27:33;13.60;99.90
19031;DHT22;9648;51.130;13.978;2023-08-31T06:30:03;13.70;99.90
19031;DHT22;9648;51.130;13.978;2023-08-31T06:32:30;13.80;99.90
19031;DHT22;9648;51.130;13.978;2023-08-31T06:34:56;13.80;99.90
19031;DHT22;9648;51.130;13.978;2023-08-31T06:37:23;13.90;99.90
19031;DHT22;9648;51.130;13.978;2023-08-31T06:39:53;13.90;99.90
19031;DHT22;9648;51.130;13.978;2023-08-31T06:42:20;13.80;99.90
19031;DHT22;9648;51.130;13.978;2023-08-31T06:44:46;13.90;99.90
19031;DHT22;9648;51.130;13.978;2023-08-31T06:47:15;14.00;99.90
19031;DHT22;9648;51.130;13.978;2023-08-31T06:49:43;14.10;99.90
19031;DHT22;9648;51.130;13.978;2023-08-31T06:52:10;14.30;99.90
19031;DHT22;9648;51.130;13.978;2023-08-31T06:54:36;14.40;99.90
19031;DHT22;9648;51.130;13.978;2023-08-31T06:57:03;14.60;99.90
19031;DHT22;9648;51.130;13.978;2023-08-31T06:59:30;14.60;99.90
19031;DHT22;9648;51.130;13.978;2023-08-31T07:01:57;14.70;99.90
19031;DHT22;9648;51.130;13.978;2023-08-31T07:04:26;14.80;99.90
19031;DHT22;9648;51.130;13.978;2023-08-31T07:06:53;14.90;99.90
19031;DHT22;9648;51.130;13.978;2023-08-31T07:09:20;15.00;99.90
19031;DHT22;9648;51.130;13.978;2023-08-31T07:11:47;14.90;99.90
19031;DHT22;9648;51.130;13.978;2023-08-31T07:14:14;14.90;99.90
19031;DHT22;9648;51.130;13.978;2023-08-31T07:16:41;15.00;99.90
19031;DHT22;9648;51.130;13.978;2023-08-31T07:19:07;14.90;99.90
19031;DHT22;9648;51.130;13.978;2023-08-31T07:21:36;14.90;99.90
19031;DHT22;9648;51.130;13.978;2023-08-31T07:24:04;14.90;99.90
19031;DHT22;9648;51.130;13.978;2023-08-31T07:26:31;14.90;99.90
19031;DHT22;9648;51.130;13.978;2023-08-31T07:28:58;14.90;99.90
19031;DHT22;9648;51.130;13.978;2023-08-31T07:31:28;14.90;99.90
19031;DHT22;9648;51.130;13.978;2023-08-31T07:33:54;15.00;99.90
19031;DHT22;9648;51.130;13.978;2023-08-31T07:36:24;15.10;99.90
19031;DHT22;9648;51.130;13.978;2023-08-31T07:38:53;15.10;99.90
19031;DHT22;9648;51.130;13.978;2023-08-31T07:41:23;15.10;99.90
19031;DHT22;9648;51.130;13.978;2023-08-31T07:43:53;15.10;99.90
19031;DHT22;9648;51.130;13.978;2023-08-31T07:46:20;15.10;99.90
19031;DHT22;9648;51.130;13.978;2023-08-31T07:48:50;15.10;99.90
19031;DHT22;9648;51.130;13.978;2023-08-31T07:51:17;15.10;99.90
19031;DHT22;9648;51.130;13.978;2023-08-31T07:53:48;15.10;99.90
19031;DHT22;9648;51.130;13.978;2023-08-31T07:56:20;15.10;99.90
19031;DHT22;9648;51.130;13.978;2023-08-31T07:58:46;15.10;99.90
19031;DHT22;9648;51.130;13.978;2023-08-31T08:01:13;15.10;99.90
19031;DHT22;9648;51.130;13.978;2023-08-31T08:03:43;15.00;99.90
19031;DHT22;9648;51.130;13.978;2023-08-31T08:06:10;15.00;99.90
19031;DHT22;9648;51.130;13.978;2023-08-31T08:08:37;15.00;99.90
19031;DHT22;9648;51.130;13.978;2023-08-31T08:11:04;15.00;99.90
19031;DHT22;9648;51.130;13.978;2023-08-31T08:13:32;15.10;99.90
19031;DHT22;9648;51.130;13.978;2023-08-31T08:15:59;15.20;99.90
19031;DHT22;9648;51.130;13.978;2023-08-31T08:18:26;15.30;99.90
19031;DHT22;9648;51.130;13.978;2023-08-31T08:20:53;15.50;99.90
19031;DHT22;9648;51.130;13.978;2023-08-31T08:23:21;15.50;99.90
19031;DHT22;9648;51.130;13.978;2023-08-31T08:25:49;15.60;99.90
19031;DHT22;9648;51.130;13.978;2023-08-31T08:28:15;15.70;99.90
19031;DHT22;9648;51.130;13.978;2023-08-31T08:30:43;15.80;99.90
19031;DHT22;9648;51.130;13.978;2023-08-31T08:33:10;15.90;99.90
19031;DHT22;9648;51.130;13.978;2023-08-31T08:35:37;16.10;99.90
19031;DHT22;9648;51.130;13.978;2023-08-31T08:38:04;16.20;99.90
19031;DHT22;9648;51.130;13.978;2023-08-31T08:40:31;16.30;99.90
19031;DHT22;9648;51.130;13.978;2023-08-31T08:43:00;16.40;99.90
19031;DHT22;9648;51.130;13.978;2023-08-31T08:45:32;16.50;99.90
19031;DHT22;9648;51.130;13.978;2023-08-31T08:48:05;16.60;99.90
19031;DHT22;9648;51.130;13.978;2023-08-31T08:50:36;16.50;99.90
19031;DHT22;9648;51.130;13.978;2023-08-31T08:53:04;16.50;99.90
19031;DHT22;9648;51.130;13.978;2023-08-31T08:55:31;16.50;99.90
19031;DHT22;9648;51.130;13.978;2023-08-31T08:57:58;16.40;99.90
19031;DHT22;9648;51.130;13.978;2023-08-31T09:00:26;16.30;99.90
19031;DHT22;9648;51.130;13.978;2023-08-31T09:02:53;16.50;99.90
19031;DHT22;9648;51.130;13.978;2023-08-31T09:05:22;16.60;99.90
19031;DHT22;9648;51.130;13.978;2023-08-31T09:08:02;16.90;99.90
19031;DHT22;9648;51.130;13.978;2023-08-31T09:10:36;17.00;99.90
19031;DHT22;9648;51.130;13.978;2023-08-31T09:13:07;17.10;99.90
19031;DHT22;9648;51.130;13.978;2023-08-31T09:15:42;17.10;99.90
19031;DHT22;9648;51.130;13.978;2023-08-31T09:18:14;17.20;99.90
19031;DHT22;9648;51.130;13.978;2023-08-31T09:20:47;17.20;99.90
19031;DHT22;9648;51.130;13.978;2023-08-31T09:23:15;17.40;99.90
19031;DHT22;9648;51.130;13.978;2023-08-31T09:25:42;17.60;99.90
19031;DHT22;9648;51.130;13.978;2023-08-31T09:28:10;17.50;99.90
19031;DHT22;9648;51.130;13.978;2023-08-31T09:30:38;17.50;99.90
19031;DHT22;9648;51.130;13.978;2023-08-31T09:33:07;17.50;99.90
19031;DHT22;9648;51.130;13.978;2023-08-31T09:35:38;17.40;99.90
19031;DHT22;9648;51.130;13.978;2023-08-31T09:38:09;17.40;99.90
19031;DHT22;9648;51.130;13.978;2023-08-31T09:40:37;17.30;99.90
19031;DHT22;9648;51.130;13.978;2023-08-31T09:43:04;17.30;99.90
19031;DHT22;9648;51.130;13.978;2023-08-31T09:45:32;17.40;99.90
19031;DHT22;9648;51.130;13.978;2023-08-31T09:48:02;17.30;99.90
19031;DHT22;9648;51.130;13.978;2023-08-31T09:50:31;17.20;99.90
19031;DHT22;9648;51.130;13.978;2023-08-31T09:53:00;17.00;99.90
19031;DHT22;9648;51.130;13.978;2023-08-31T09:55:33;16.70;99.90
19031;DHT22;9648;51.130;13.978;2023-08-31T09:58:00;16.70;99.90
19031;DHT22;9648;51.130;13.978;2023-08-31T10:00:29;16.80;99.90
19031;DHT22;9648;51.130;13.978;2023-08-31T10:03:01;16.80;99.90
19031;DHT22;9648;51.130;13.978;2023-08-31T10:05:32;16.80;99.90
19031;DHT22;9648;51.130;13.978;2023-08-31T10:08:02;16.90;99.90
19031;DHT22;9648;51.130;13.978;2023-08-31T10:10:29;17.00;99.90
19031;DHT22;9648;51.130;13.978;2023-08-31T10:12:58;17.10;99.90
19031;DHT22;9648;51.130;13.978;2023-08-31T10:15:32;17.10;99.90
19031;DHT22;9648;51.130;13.978;2023-08-31T10:18:00;17.20;99.90
19031;DHT22;9648;51.130;13.978;2023-08-31T10:20:29;17.10;99.90
19031;DHT22;9648;51.130;13.978;2023-08-31T10:22:57;17.20;99.90
19031;DHT22;9648;51.130;13.978;2023-08-31T10:25:24;17.20;99.90
19031;DHT22;9648;51.130;13.978;2023-08-31T10:27:52;17.30;99.90
19031;DHT22;9648;51.130;13.978;2023-08-31T10:30:27;17.30;99.90
19031;DHT22;9648;51.130;13.978;2023-08-31T10:33:19;17.50;99.90
19031;DHT22;9648;51.130;13.978;2023-08-31T10:35:52;17.60;99.90
19031;DHT22;9648;51.130;13.978;2023-08-31T10:38:27;17.60;99.90
19031;DHT22;9648;51.130;13.978;2023-08-31T10:41:20;17.60;99.90
19031;DHT22;9648;51.130;13.978;2023-08-31T10:43:48;17.70;99.90
19031;DHT22;9648;51.130;13.978;2023-08-31T10:46:27;17.80;99.90
19031;DHT22;9648;51.130;13.978;2023-08-31T10:48:55;17.90;99.90
19031;DHT22;9648;51.130;13.978;2023-08-31T10:51:26;17.80;99.90
19031;DHT22;9648;51.130;13.978;2023-08-31T10:54:08;17.60;99.90
19031;DHT22;9648;51.130;13.978;2023-08-31T10:59:48;17.40;99.90
19031;DHT22;9648;51.130;13.978;2023-08-31T11:02:33;17.50;99.90
19031;DHT22;9648;51.130;13.978;2023-08-31T11:05:01;17.70;99.90
19031;DHT22;9648;51.130;13.978;2023-08-31T11:07:30;17.90;99.90
19031;DHT22;9648;51.130;13.978;2023-08-31T11:10:12;18.00;99.90
19031;DHT22;9648;51.130;13.978;2023-08-31T11:12:39;18.20;99.90
19031;DHT22;9648;51.130;13.978;2023-08-31T11:15:07;18.30;99.90
19031;DHT22;9648;51.130;13.978;2023-08-31T11:17:36;18.30;99.90
19031;DHT22;9648;51.130;13.978;2023-08-31T11:20:06;18.50;99.90
19031;DHT22;9648;51.130;13.978;2023-08-31T11:22:38;18.60;99.90
19031;DHT22;9648;51.130;13.978;2023-08-31T11:25:05;18.50;99.90
19031;DHT22;9648;51.130;13.978;2023-08-31T11:27:32;18.40;99.90
19031;DHT22;9648;51.130;13.978;2023-08-31T11:29:59;18.20;99.90
19031;DHT22;9648;51.130;13.978;2023-08-31T11:32:27;18.10;99.90
19031;DHT22;9648;51.130;13.978;2023-08-31T11:34:57;17.90;99.90
19031;DHT22;9648;51.130;13.978;2023-08-31T11:37:24;17.60;99.90
19031;DHT22;9648;51.130;13.978;2023-08-31T11:39:53;17.30;99.90
19031;DHT22;9648;51.130;13.978;2023-08-31T11:42:21;16.90;99.90
19031;DHT22;9648;51.130;13.978;2023-08-31T11:44:49;16.70;99.90
19031;DHT22;9648;51.130;13.978;2023-08-31T11:47:17;16.60;99.90
19031;DHT22;9648;51.130;13.978;2023-08-31T11:49:47;16.40;99.90
19031;DHT22;9648;51.130;13.978;2023-08-31T11:52:16;16.30;99.90
19031;DHT22;9648;51.130;13.978;2023-08-31T11:54:43;16.20;99.90
19031;DHT22;9648;51.130;13.978;2023-08-31T11:57:11;16.20;99.90
19031;DHT22;9648;51.130;13.978;2023-08-31T11:59:40;16.30;99.90
19031;DHT22;9648;51.130;13.978;2023-08-31T12:02:08;16.30;99.90
19031;DHT22;9648;51.130;13.978;2023-08-31T12:04:42;16.20;99.90
19031;DHT22;9648;51.130;13.978;2023-08-31T12:07:09;16.20;99.90
19031;DHT22;9648;51.130;13.978;2023-08-31T12:09:37;16.20;99.90
19031;DHT22;9648;51.130;13.978;2023-08-31T12:12:05;16.10;99.90
19031;DHT22;9648;51.130;13.978;2023-08-31T12:14:37;16.00;99.90
19031;DHT22;9648;51.130;13.978;2023-08-31T12:17:08;16.00;99.90
19031;DHT22;9648;51.130;13.978;2023-08-31T12:19:37;16.00;99.90
19031;DHT22;9648;51.130;13.978;2023-08-31T12:22:04;16.00;99.90
19031;DHT22;9648;51.130;13.978;2023-08-31T12:24:41;16.10;99.90
19031;DHT22;9648;51.130;13.978;2023-08-31T12:27:08;16.20;99.90
19031;DHT22;9648;51.130;13.978;2023-08-31T12:29:36;16.30;99.90
19031;DHT22;9648;51.130;13.978;2023-08-31T12:32:06;16.30;99.90
19031;DHT22;9648;51.130;13.978;2023-08-31T12:34:33;16.30;99.90
19031;DHT22;9648;51.130;13.978;2023-08-31T12:37:00;16.30;99.90
19031;DHT22;9648;51.130;13.978;2023-08-31T12:39:28;16.30;99.90
19031;DHT22;9648;51.130;13.978;2023-08-31T12:41:56;16.40;99.90
19031;DHT22;9648;51.130;13.978;2023-08-31T12:44:23;16.60;99.90
19031;DHT22;9648;51.130;13.978;2023-08-31T12:46:51;16.80;99.90
19031;DHT22;9648;51.130;13.978;2023-08-31T12:49:17;17.10;99.90
19031;DHT22;9648;51.130;13.978;2023-08-31T12:51:48;17.30;99.90
19031;DHT22;9648;51.130;13.978;2023-08-31T12:54:16;17.40;99.90
19031;DHT22;9648;51.130;13.978;2023-08-31T12:56:43;17.60;99.90
19031;DHT22;9648;51.130;13.978;2023-08-31T12:59:11;17.90;99.90
19031;DHT22;9648;51.130;13.978;2023-08-31T13:01:38;18.20;99.90
19031;DHT22;9648;51.130;13.978;2023-08-31T13:04:05;18.30;99.90
19031;DHT22;9648;51.130;13.978;2023-08-31T13:06:32;18.30;99.90
19031;DHT22;9648;51.130;13.978;2023-08-31T13:09:01;18.30;99.90
19031;DHT22;9648;51.130;13.978;2023-08-31T13:11:30;18.30;99.90
19031;DHT22;9648;51.130;13.978;2023-08-31T13:13:57;18.30;99.90
19031;DHT22;9648;51.130;13.978;2023-08-31T13:16:25;18.00;99.90
19031;DHT22;9648;51.130;13.978;2023-08-31T13:18:52;17.80;99.90
19031;DHT22;9648;51.130;13.978;2023-08-31T13:21:19;17.60;99.90
19031;DHT22;9648;51.130;13.978;2023-08-31T13:23:49;17.40;99.90
19031;DHT22;9648;51.130;13.978;2023-08-31T13:26:15;17.20;99.90
19031;DHT22;9648;51.130;13.978;2023-08-31T13:28:42;17.10;99.90
19031;DHT22;9648;51.130;13.978;2023-08-31T13:31:09;16.90;99.90
19031;DHT22;9648;51.130;13.978;2023-08-31T13:33:38;16.70;99.90
19031;DHT22;9648;51.130;13.978;2023-08-31T13:36:05;16.60;99.90
19031;DHT22;9648;51.130;13.978;2023-08-31T13:38:35;16.50;99.90
19031;DHT22;9648;51.130;13.978;2023-08-31T13:41:02;16.80;99.90
19031;DHT22;9648;51.130;13.978;2023-08-31T13:43:29;17.00;99.90
19031;DHT22;9648;51.130;13.978;2023-08-31T13:45:56;17.20;99.90
19031;DHT22;9648;51.130;13.978;2023-08-31T13:48:23;17.40;99.90
19031;DHT22;9648;51.130;13.978;2023-08-31T13:50:54;17.60;99.90
19031;DHT22;9648;51.130;13.978;2023-08-31T13:53:21;17.80;99.90
19031;DHT22;9648;51.130;13.978;2023-08-31T13:55:48;17.90;99.90
19031;DHT22;9648;51.130;13.978;2023-08-31T13:58:15;18.00;99.90
19031;DHT22;9648;51.130;13.978;2023-08-31T14:00:42;18.10;99.90
19031;DHT22;9648;51.130;13.978;2023-08-31T14:03:09;18.20;99.90
19031;DHT22;9648;51.130;13.978;2023-08-31T14:05:36;18.20;99.90
19031;DHT22;9648;51.130;13.978;2023-08-31T14:08:05;18.20;99.90
19031;DHT22;9648;51.130;13.978;2023-08-31T14:10:32;18.30;99.90
19031;DHT22;9648;51.130;13.978;2023-08-31T14:12:59;18.40;99.90
19031;DHT22;9648;51.130;13.978;2023-08-31T14:15:26;18.60;99.90
19031;DHT22;9648;51.130;13.978;2023-08-31T14:17:53;18.80;99.90
19031;DHT22;9648;51.130;13.978;2023-08-31T14:20:19;18.90;99.90
19031;DHT22;9648;51.130;13.978;2023-08-31T14:22:46;18.80;99.90
19031;DHT22;9648;51.130;13.978;2023-08-31T14:25:15;18.60;99.90
19031;DHT22;9648;51.130;13.978;2023-08-31T14:27:41;18.30;99.90
19031;DHT22;9648;51.130;13.978;2023-08-31T14:30:10;18.10;99.90
19031;DHT22;9648;51.130;13.978;2023-08-31T14:32:37;17.80;99.90
19031;DHT22;9648;51.130;13.978;2023-08-31T14:35:04;17.60;99.90
19031;DHT22;9648;51.130;13.978;2023-08-31T14:37:32;17.30;99.90
19031;DHT22;9648;51.130;13.978;2023-08-31T14:39:59;17.10;99.90
19031;DHT22;9648;51.130;13.978;2023-08-31T14:42:27;16.90;99.90
19031;DHT22;9648;51.130;13.978;2023-08-31T14:44:54;16.80;99.90
19031;DHT22;9648;51.130;13.978;2023-08-31T14:47:21;16.80;99.90
19031;DHT22;9648;51.130;13.978;2023-08-31T14:49:47;16.90;99.90
19031;DHT22;9648;51.130;13.978;2023-08-31T14:52:14;16.90;99.90
19031;DHT22;9648;51.130;13.978;2023-08-31T14:54:41;16.90;99.90
19031;DHT22;9648;51.130;13.978;2023-08-31T14:57:08;16.90;99.90
19031;DHT22;9648;51.130;13.978;2023-08-31T14:59:36;17.00;99.90
19031;DHT22;9648;51.130;13.978;2023-08-31T15:02:03;17.10;99.90
19031;DHT22;9648;51.130;13.978;2023-08-31T15:04:31;17.20;99.90
19031;DHT22;9648;51.130;13.978;2023-08-31T15:06:58;17.20;99.90
19031;DHT22;9648;51.130;13.978;2023-08-31T15:09:25;17.30;99.90
19031;DHT22;9648;51.130;13.978;2023-08-31T15:11:55;17.20;99.90
19031;DHT22;9648;51.130;13.978;2023-08-31T15:14:22;17.30;99.90
19031;DHT22;9648;51.130;13.978;2023-08-31T15:16:50;17.30;99.90
19031;DHT22;9648;51.130;13.978;2023-08-31T15:19:17;17.30;99.90
19031;DHT22;9648;51.130;13.978;2023-08-31T15:21:44;17.20;99.90
19031;DHT22;9648;51.130;13.978;2023-08-31T15:24:13;17.20;99.90
19031;DHT22;9648;51.130;13.978;2023-08-31T15:26:43;17.30;99.90
19031;DHT22;9648;51.130;13.978;2023-08-31T15:29:10;17.30;99.90
19031;DHT22;9648;51.130;13.978;2023-08-31T15:31:37;17.30;99.90
19031;DHT22;9648;51.130;13.978;2023-08-31T15:34:05;17.30;99.90
19031;DHT22;9648;51.130;13.978;2023-08-31T15:36:36;17.20;99.90
19031;DHT22;9648;51.130;13.978;2023-08-31T15:39:03;17.20;99.90
19031;DHT22;9648;51.130;13.978;2023-08-31T15:41:30;17.20;99.90